createdAt,value
2023-11-26T00:01:18.374Z,6.78
2023-11-26T00:05:00.703Z,6.18
2023-11-26T00:08:42.796Z,6.38
2023-11-26T00:12:25.237Z,6.28
2023-11-26T00:16:07.330Z,6.35
2023-11-26T00:19:50.668Z,6.18
2023-11-26T00:23:32.793Z,5.70
2023-11-26T00:27:15.252Z,5.63
2023-11-26T00:30:57.300Z,5.47
2023-11-26T00:34:39.592Z,5.65
2023-11-26T00:38:21.633Z,5.93
2023-11-26T00:42:03.719Z,5.60
2023-11-26T00:45:45.774Z,5.60
2023-11-26T00:49:27.791Z,5.97
2023-11-26T00:53:09.907Z,5.45
2023-11-26T00:56:51.951Z,5.57
2023-11-26T01:00:34.155Z,5.25
2023-11-26T01:04:16.428Z,5.55
2023-11-26T01:07:58.598Z,5.43
2023-11-26T01:11:40.679Z,5.70
2023-11-26T01:15:25.800Z,4.88
2023-11-26T01:19:07.863Z,5.00
2023-11-26T01:22:49.982Z,5.10
2023-11-26T01:26:32.013Z,4.60
2023-11-26T01:30:14.538Z,5.05
2023-11-26T01:33:56.576Z,4.60
2023-11-26T01:37:38.776Z,4.53
2023-11-26T01:41:20.850Z,4.93
2023-11-26T01:45:03.747Z,5.03
2023-11-26T01:48:45.949Z,4.90
2023-11-26T01:52:27.998Z,4.47
2023-11-26T01:56:10.547Z,4.88
2023-11-26T01:59:52.629Z,4.45
2023-11-26T02:03:35.550Z,4.80
2023-11-26T02:07:17.766Z,4.30
2023-11-26T02:11:02.829Z,4.15
2023-11-26T02:14:49.838Z,4.38
2023-11-26T02:18:31.846Z,4.65
2023-11-26T02:22:13.902Z,4.75
2023-11-26T02:25:56.032Z,5.13
2023-11-26T02:29:40.058Z,4.43
2023-11-26T02:33:22.388Z,4.90
2023-11-26T02:37:04.660Z,4.50
2023-11-26T02:40:49.825Z,4.22
2023-11-26T02:44:32.008Z,4.13
2023-11-26T02:48:14.151Z,4.93
2023-11-26T02:51:56.322Z,4.30
2023-11-26T02:55:38.415Z,4.43
2023-11-26T02:59:20.615Z,4.65
2023-11-26T03:03:02.757Z,4.53
2023-11-26T03:06:46.150Z,4.60
2023-11-26T03:10:46.804Z,4.03
2023-11-26T03:14:28.878Z,3.65
2023-11-26T03:18:14.400Z,4.43
2023-11-26T03:21:56.797Z,3.75
2023-11-26T03:25:39.769Z,3.75
2023-11-26T03:29:21.819Z,3.55
2023-11-26T03:33:04.340Z,3.17
2023-11-26T03:36:46.557Z,4.20
2023-11-26T03:40:28.592Z,3.42
2023-11-26T03:44:10.786Z,3.50
2023-11-26T03:47:52.904Z,3.70
2023-11-26T03:51:35.574Z,3.80
2023-11-26T03:55:17.759Z,3.45
2023-11-26T03:58:59.833Z,3.67
2023-11-26T04:02:42.200Z,3.63
2023-11-26T04:06:24.361Z,3.80
2023-11-26T04:10:09.986Z,4.00
2023-11-26T04:13:52.073Z,3.80
2023-11-26T04:17:35.098Z,3.92
2023-11-26T04:21:17.149Z,4.40
2023-11-26T04:24:59.964Z,5.00
2023-11-26T04:28:41.963Z,4.63
2023-11-26T04:32:24.051Z,5.53
2023-11-26T04:36:07.663Z,5.47
2023-11-26T04:39:50.826Z,4.93
2023-11-26T04:43:32.917Z,5.57
2023-11-26T04:47:16.196Z,5.38
2023-11-26T04:50:58.211Z,4.88
2023-11-26T04:54:40.169Z,4.18
2023-11-26T04:58:22.167Z,4.95
2023-11-26T05:02:07.938Z,5.15
2023-11-26T05:05:50.763Z,5.10
2023-11-26T05:09:33.856Z,4.53
2023-11-26T05:13:15.950Z,4.45
2023-11-26T05:16:58.102Z,4.90
2023-11-26T05:20:40.188Z,5.15
2023-11-26T05:24:22.297Z,5.47
2023-11-26T05:28:04.475Z,5.03
2023-11-26T05:31:46.553Z,4.80
2023-11-26T05:35:29.558Z,4.93
2023-11-26T05:39:12.873Z,5.00
2023-11-26T05:42:54.832Z,5.15
2023-11-26T05:46:44.537Z,5.47
2023-11-26T05:50:26.859Z,5.68
2023-11-26T05:54:09.006Z,5.85
2023-11-26T05:57:50.991Z,5.88
2023-11-26T06:01:33.193Z,5.80
2023-11-26T06:05:15.254Z,5.40
2023-11-26T06:08:57.287Z,5.45
2023-11-26T06:12:39.301Z,5.20
2023-11-26T06:16:24.322Z,5.55
2023-11-26T06:20:09.895Z,5.80
2023-11-26T06:23:54.611Z,5.68
2023-11-26T06:27:39.070Z,5.40
2023-11-26T06:31:25.511Z,5.10
2023-11-26T06:35:10.179Z,5.75
2023-11-26T06:38:53.899Z,5.15
2023-11-26T06:42:35.956Z,5.30
2023-11-26T06:46:18.905Z,5.47
2023-11-26T06:50:00.903Z,5.60
2023-11-26T06:53:42.924Z,6.00
2023-11-26T06:57:25.066Z,5.68
2023-11-26T07:01:07.664Z,5.28
2023-11-26T07:04:49.934Z,5.40
2023-11-26T07:08:32.520Z,5.72
2023-11-26T07:12:14.744Z,5.32
2023-11-26T07:15:56.761Z,5.53
2023-11-26T07:19:42.524Z,5.43
2023-11-26T07:23:24.559Z,5.80
2023-11-26T07:27:07.099Z,5.93
2023-11-26T07:30:49.061Z,6.07
2023-11-26T07:34:31.088Z,6.18
2023-11-26T07:38:13.347Z,6.38
2023-11-26T07:41:55.362Z,6.00
2023-11-26T07:45:38.901Z,6.28
2023-11-26T07:49:23.718Z,6.00
2023-11-26T07:53:06.861Z,5.57
2023-11-26T07:56:49.132Z,5.60
2023-11-26T08:00:31.248Z,5.43
2023-11-26T08:04:13.874Z,5.25
2023-11-26T08:07:55.945Z,5.03
2023-11-26T08:11:45.007Z,5.43
2023-11-26T08:15:29.456Z,5.85
2023-11-26T08:19:17.785Z,5.13
2023-11-26T08:23:03.822Z,5.10
2023-11-26T08:26:47.944Z,5.67
2023-11-26T08:30:33.184Z,4.88
2023-11-26T08:34:18.881Z,4.72
2023-11-26T08:38:03.213Z,4.82
2023-11-26T08:41:48.850Z,4.85
2023-11-26T08:45:34.419Z,5.20
2023-11-26T08:49:19.798Z,5.43
2023-11-26T08:53:06.729Z,5.57
2023-11-26T08:56:50.559Z,5.18
2023-11-26T09:00:32.584Z,4.70
2023-11-26T09:04:14.698Z,4.60
2023-11-26T09:07:56.794Z,4.25
2023-11-26T09:11:38.794Z,4.07
2023-11-26T09:15:21.625Z,3.95
2023-11-26T09:19:05.025Z,4.53
2023-11-26T09:22:49.317Z,5.55
2023-11-26T09:26:31.371Z,4.97
2023-11-26T09:30:14.379Z,5.78
2023-11-26T09:33:57.170Z,4.97
2023-11-26T09:37:42.016Z,5.18
2023-11-26T09:41:24.048Z,4.95
2023-11-26T09:45:06.742Z,5.65
2023-11-26T09:48:51.108Z,6.13
2023-11-26T09:52:35.692Z,7.03
2023-11-26T09:56:21.244Z,6.82
2023-11-26T10:00:03.397Z,5.82
2023-11-26T10:03:59.434Z,6.13
2023-11-26T10:07:43.445Z,5.70
2023-11-26T10:11:27.276Z,5.72
2023-11-26T10:15:10.963Z,5.70
2023-11-26T10:18:53.107Z,5.47
2023-11-26T10:22:47.843Z,5.38
2023-11-26T10:26:30.706Z,5.50
2023-11-26T10:30:24.807Z,5.70
2023-11-26T10:34:17.078Z,5.63
2023-11-26T10:38:10.314Z,5.80
2023-11-26T10:41:52.673Z,5.88
2023-11-26T10:45:35.391Z,5.43
2023-11-26T10:49:20.432Z,5.47
2023-11-26T10:53:07.328Z,5.82
2023-11-26T10:56:53.725Z,5.15
2023-11-26T11:00:36.959Z,5.60
2023-11-26T11:04:20.152Z,6.32
2023-11-26T11:08:04.280Z,7.05
2023-11-26T11:11:56.757Z,7.97
2023-11-26T11:15:44.496Z,7.05
2023-11-26T11:19:52.371Z,7.28
2023-11-26T11:23:36.525Z,6.80
2023-11-26T11:27:18.616Z,7.00
2023-11-26T11:31:01.588Z,6.63
2023-11-26T11:34:43.652Z,5.03
2023-11-26T11:38:27.899Z,4.13
2023-11-26T11:42:11.339Z,3.90
2023-11-26T11:45:53.329Z,4.43
2023-11-26T11:49:47.407Z,3.88
2023-11-26T11:53:35.266Z,4.40
2023-11-26T11:57:18.172Z,4.38
2023-11-26T12:01:00.686Z,4.00
2023-11-26T12:04:48.469Z,3.58
2023-11-26T12:08:30.653Z,4.10
2023-11-26T12:12:23.790Z,3.65
2023-11-26T12:16:06.275Z,4.10
2023-11-26T12:19:50.256Z,3.40
2023-11-26T12:23:38.083Z,2.85
2023-11-26T12:27:26.591Z,2.78
2023-11-26T12:31:08.742Z,3.08
2023-11-26T12:34:50.730Z,2.65
2023-11-26T12:38:32.979Z,2.65
2023-11-26T12:42:15.118Z,3.00
2023-11-26T12:46:13.419Z,2.58
2023-11-26T12:50:03.196Z,2.08
2023-11-26T12:53:50.606Z,2.42
2023-11-26T12:57:40.106Z,2.25
2023-11-26T13:01:29.301Z,2.28
2023-11-26T13:05:28.292Z,1.80
2023-11-26T13:09:10.550Z,1.70
2023-11-26T13:12:52.714Z,1.80
2023-11-26T13:16:35.747Z,2.10
2023-11-26T13:20:21.248Z,2.38
2023-11-26T13:24:04.641Z,2.10
2023-11-26T13:27:46.746Z,2.60
2023-11-26T13:31:28.784Z,1.98
2023-11-26T13:35:12.304Z,1.70
2023-11-26T13:38:55.678Z,1.58
2023-11-26T13:42:37.741Z,1.85
2023-11-26T13:46:19.868Z,1.50
2023-11-26T13:50:01.951Z,1.42
2023-11-26T13:53:43.981Z,1.60
2023-11-26T13:57:27.880Z,1.30
2023-11-26T14:01:12.847Z,1.27
2023-11-26T14:04:54.943Z,1.60
2023-11-26T14:08:38.774Z,1.40
2023-11-26T14:12:20.810Z,1.67
2023-11-26T14:16:05.439Z,1.70
2023-11-26T14:19:47.435Z,1.48
2023-11-26T14:23:29.474Z,1.75
2023-11-26T14:27:11.483Z,2.17
2023-11-26T14:30:54.860Z,1.60
2023-11-26T14:34:37.702Z,1.52
2023-11-26T14:38:20.836Z,1.30
2023-11-26T14:42:02.889Z,1.60
2023-11-26T14:45:45.081Z,2.38
2023-11-26T14:49:29.141Z,2.00
2023-11-26T14:53:14.427Z,2.25
2023-11-26T14:56:57.815Z,2.10
2023-11-26T15:00:41.152Z,2.20
2023-11-26T15:04:23.329Z,2.10
2023-11-26T15:08:05.354Z,2.33
2023-11-26T15:11:47.751Z,2.47
2023-11-26T15:15:29.807Z,2.33
2023-11-26T15:19:12.338Z,2.28
2023-11-26T15:23:01.909Z,2.72
2023-11-26T15:26:45.203Z,2.13
2023-11-26T15:30:28.745Z,2.20
2023-11-26T15:34:10.904Z,2.40
2023-11-26T15:37:53.345Z,2.30
2023-11-26T15:41:35.326Z,2.40
2023-11-26T15:45:17.606Z,2.20
2023-11-26T15:49:02.888Z,2.08
2023-11-26T15:52:44.928Z,2.83
2023-11-26T15:56:26.943Z,3.03
2023-11-26T16:00:09.722Z,3.85
2023-11-26T16:03:51.848Z,4.13
2023-11-26T16:07:34.130Z,4.10
2023-11-26T16:11:16.399Z,4.45
2023-11-26T16:14:58.400Z,3.88
2023-11-26T16:18:43.505Z,3.67
2023-11-26T16:22:25.541Z,4.15
2023-11-26T16:26:07.647Z,4.70
2023-11-26T16:29:49.666Z,4.38
2023-11-26T16:33:48.298Z,3.38
2023-11-26T16:37:32.359Z,4.13
2023-11-26T16:41:19.395Z,3.55
2023-11-26T16:45:01.624Z,4.60
2023-11-26T16:48:45.000Z,5.20
2023-11-26T16:52:28.628Z,4.57
2023-11-26T16:56:11.629Z,4.20
2023-11-26T16:59:53.784Z,3.85
2023-11-26T17:03:36.458Z,3.83
2023-11-26T17:07:18.608Z,4.40
2023-11-26T17:11:00.664Z,4.32
2023-11-26T17:14:42.661Z,4.57
2023-11-26T17:18:24.816Z,4.03
2023-11-26T17:22:06.905Z,3.72
2023-11-26T17:25:51.497Z,4.10
2023-11-26T17:29:34.114Z,3.75
2023-11-26T17:33:16.086Z,3.60
2023-11-26T17:36:58.949Z,3.20
2023-11-26T17:40:41.858Z,3.33
2023-11-26T17:44:23.973Z,3.20
2023-11-26T17:48:06.153Z,3.22
2023-11-26T17:51:48.924Z,3.33
2023-11-26T17:55:32.588Z,3.40
2023-11-26T17:59:14.692Z,3.42
2023-11-26T18:02:56.818Z,3.60
2023-11-26T18:06:38.860Z,4.03
2023-11-26T18:10:20.926Z,3.72
2023-11-26T18:14:06.487Z,4.05
2023-11-26T18:17:48.640Z,4.60
2023-11-26T18:21:30.797Z,4.45
2023-11-26T18:25:13.877Z,4.47
2023-11-26T18:28:55.861Z,4.63
2023-11-26T18:32:38.157Z,5.38
2023-11-26T18:36:20.824Z,6.70
2023-11-26T18:40:05.121Z,7.82
2023-11-26T18:43:47.399Z,8.48
2023-11-26T18:47:29.481Z,8.48
2023-11-26T18:51:11.487Z,8.30
2023-11-26T18:54:54.245Z,8.45
2023-11-26T18:58:36.270Z,7.80
2023-11-26T19:02:20.122Z,7.78
2023-11-26T19:06:02.282Z,7.50
2023-11-26T19:09:44.421Z,7.88
2023-11-26T19:13:28.046Z,7.53
2023-11-26T19:17:10.198Z,7.30
2023-11-26T19:20:52.209Z,7.70
2023-11-26T19:24:34.271Z,9.00
2023-11-26T19:28:16.306Z,9.23
2023-11-26T19:31:59.261Z,8.93
2023-11-26T19:35:41.848Z,9.43
2023-11-26T19:39:23.907Z,10.45
2023-11-26T19:43:07.861Z,13.35
2023-11-26T19:46:49.971Z,17.42
2023-11-26T19:50:34.483Z,19.45
2023-11-26T19:54:16.772Z,19.02
2023-11-26T19:57:58.900Z,29.65
2023-11-26T20:01:41.023Z,24.33
2023-11-26T20:05:23.097Z,8.52
2023-11-26T20:09:06.940Z,8.77
2023-11-26T20:12:49.609Z,8.60
2023-11-26T20:16:31.687Z,4.75
2023-11-26T20:20:15.948Z,3.38
2023-11-26T20:23:58.105Z,3.20
2023-11-26T20:27:41.892Z,3.08
2023-11-26T20:31:23.921Z,2.90
2023-11-26T20:35:07.654Z,2.53
2023-11-26T20:38:49.796Z,2.38
2023-11-26T20:42:31.890Z,3.25
2023-11-26T20:46:23.353Z,2.15
2023-11-26T20:50:06.330Z,2.28
2023-11-26T20:53:48.765Z,2.60
2023-11-26T20:57:30.835Z,1.95
2023-11-26T21:01:12.832Z,2.38
2023-11-26T21:04:54.836Z,3.08
2023-11-26T21:08:36.936Z,2.72
2023-11-26T21:12:19.895Z,2.63
2023-11-26T21:16:02.673Z,2.70
2023-11-26T21:19:44.700Z,2.67
2023-11-26T21:23:27.697Z,3.03
2023-11-26T21:27:09.908Z,2.42
2023-11-26T21:30:52.068Z,2.40
2023-11-26T21:34:34.256Z,2.25
2023-11-26T21:38:16.336Z,2.08
2023-11-26T21:41:58.318Z,3.13
2023-11-26T21:45:40.342Z,2.63
2023-11-26T21:49:22.378Z,2.35
2023-11-26T21:53:04.353Z,3.22
2023-11-26T21:56:46.410Z,5.28
2023-11-26T22:00:28.451Z,3.67
2023-11-26T22:04:10.864Z,3.28
2023-11-26T22:07:52.904Z,5.90
2023-11-26T22:11:34.887Z,8.15
2023-11-26T22:15:17.591Z,6.32
2023-11-26T22:19:00.697Z,4.35
2023-11-26T22:22:45.374Z,5.03
2023-11-26T22:26:27.467Z,4.75
2023-11-26T22:30:12.894Z,4.70
2023-11-26T22:33:55.313Z,3.85
2023-11-26T22:37:40.852Z,2.40
2023-11-26T22:41:28.102Z,1.83
2023-11-26T22:45:11.751Z,2.40
2023-11-26T22:48:55.387Z,4.35
2023-11-26T22:52:37.545Z,2.92
2023-11-26T22:56:20.550Z,1.58
2023-11-26T23:00:04.900Z,1.80
2023-11-26T23:03:47.011Z,1.88
2023-11-26T23:07:29.082Z,1.90
2023-11-26T23:11:11.421Z,2.00
2023-11-26T23:14:53.438Z,1.60
2023-11-26T23:18:37.658Z,1.50
2023-11-26T23:22:20.113Z,1.35
2023-11-26T23:26:03.680Z,1.25
2023-11-26T23:29:45.663Z,1.10
2023-11-26T23:33:27.722Z,1.15
2023-11-26T23:37:09.812Z,1.48
2023-11-26T23:40:51.863Z,1.13
2023-11-26T23:44:33.838Z,1.95
2023-11-26T23:48:15.888Z,1.00
2023-11-26T23:51:57.916Z,1.08
2023-11-26T23:55:39.957Z,1.30
2023-11-26T23:59:21.959Z,1.08
